createdAt,value
2023-03-06T19:17:11.399Z,4.1
2023-03-06T19:22:11.272Z,3.9
2023-03-06T19:27:11.821Z,3.9
2023-03-06T19:32:11.381Z,3.8
2023-03-06T19:37:11.143Z,3.7
2023-03-06T19:42:13.488Z,3.6
2023-03-06T19:47:11.129Z,3.6
2023-03-06T19:52:11.175Z,3.5
2023-03-06T19:57:11.188Z,3.5
2023-03-06T20:02:11.143Z,3.5
2023-03-06T20:07:11.130Z,3.4
2023-03-06T20:12:11.175Z,3.4
2023-03-06T20:17:11.124Z,3.4
2023-03-06T20:22:11.105Z,3.4
2023-03-06T20:27:11.091Z,3.3
2023-03-06T20:32:11.163Z,3.3
2023-03-06T20:37:11.293Z,3.3
2023-03-06T20:42:11.099Z,3.2
2023-03-06T20:47:11.148Z,3.2
2023-03-06T20:52:11.347Z,3.2
2023-03-06T20:57:11.126Z,3.2
2023-03-06T21:02:12.209Z,3.2
2023-03-06T21:07:11.127Z,3.1
2023-03-06T21:12:11.180Z,3.1
2023-03-06T21:17:11.787Z,3.1
2023-03-06T21:22:11.177Z,3.1
2023-03-06T21:27:11.113Z,3
2023-03-06T21:32:11.258Z,3
2023-03-06T21:37:11.125Z,3
2023-03-06T21:42:11.149Z,3
2023-03-06T21:47:11.164Z,2.9
2023-03-06T21:52:11.176Z,2.9
2023-03-06T21:57:11.264Z,2.9
2023-03-06T22:02:11.191Z,2.9
2023-03-06T22:07:11.141Z,2.9
2023-03-06T22:12:11.126Z,2.9
2023-03-06T22:17:13.289Z,2.9
2023-03-06T22:22:11.131Z,2.9
2023-03-06T22:27:11.247Z,2.8
2023-03-06T22:32:11.259Z,2.8
2023-03-06T22:37:11.269Z,2.8
2023-03-06T22:42:11.131Z,2.7
2023-03-06T22:47:11.153Z,2.7
2023-03-06T22:52:18.133Z,2.7
2023-03-06T22:57:11.650Z,2.7
2023-03-06T23:02:11.123Z,2.8
2023-03-06T23:07:19.131Z,2.8
2023-03-06T23:12:11.992Z,2.8
2023-03-06T23:17:11.307Z,2.8
2023-03-06T23:22:11.304Z,2.8
2023-03-06T23:27:11.137Z,2.8
2023-03-06T23:32:11.397Z,2.8
2023-03-06T23:37:11.142Z,2.7
2023-03-06T23:42:11.142Z,2.6
2023-03-06T23:47:11.162Z,2.6
2023-03-06T23:52:11.178Z,2.6
2023-03-06T23:57:11.156Z,2.6
